Terminal Aerodrome Forecast
Issued by NWS

Home | Current Version | Previous Version | Text Only | Print | Product List | Glossary On
Versions: 1 2 3 4 5 6 7 8 9 10 11 12 13 14 15 16 17 18 19 20 21 22 23 24 25 26 27 28 29 30 31 32 33 34 35 36
000
FTUS41 KCTP 172145 AAD
TAFJST
TAF AMD
KJST 172145Z 1722/1818 20006KT P6SM -SHRA BKN035 OVC070
      TEMPO 1722/1801 5SM -SHRA BR BKN015
     FM180100 23007KT 6SM -SHRASN BR OVC025
     FM180400 16004KT 5SM BR OVC007
     FM180900 20007KT 1/2SM FG VCSH OVC003
     FM181500 23010KT 3SM BR OVC005=

USA.gov is the U.S. government's official web portal to all federal, state and local government web resources and services.